Time;durP1;ratioP1;P1;durP2;ratioP2;P2;SDS_P1;SDS_P2;PMS_P1;PMS_P2;Temp;Humidity;BMP_temperature;BMP_pressure;BME280_temperature;BME280_humidity;BME280_pressure;Samples;Min_cycle;Max_cycle;Signal;HPM_P1;HPM_P2
2023/10/04 00:00:47;;;;;;;11.07;4.10;;;;;;;;;;4923686;28;20023;-70
2023/10/04 00:03:13;;;;;;;9.18;4.30;;;;;;;;;;4922886;28;20478;-72
2023/10/04 00:05:39;;;;;;;8.73;3.70;;;;;;;;;;4925999;28;20031;-70
2023/10/04 00:08:06;;;;;;;11.10;4.30;;;;;;;;;;4920980;28;20055;-72
2023/10/04 00:10:33;;;;;;;8.50;3.60;;;;;;;;;;4926772;28;20046;-70
2023/10/04 00:12:59;;;;;;;10.00;3.95;;;;;;;;;;4921620;28;20225;-71
2023/10/04 00:15:27;;;;;;;11.57;4.70;;;;;;;;;;4927070;28;20122;-71
2023/10/04 00:17:53;;;;;;;9.90;4.38;;;;;;;;;;4919728;28;20038;-70
2023/10/04 00:20:20;;;;;;;9.65;4.35;;;;;;;;;;4926172;28;20530;-70
2023/10/04 00:22:47;;;;;;;9.10;4.13;;;;;;;;;;4923157;28;20038;-71
2023/10/04 00:25:18;;;;;;;10.85;4.07;;;;;;;;;;4926033;28;20118;-73
2023/10/04 00:27:47;;;;;;;10.60;4.53;;;;;;;;;;4936776;28;20540;-71
2023/10/04 00:30:14;;;;;;;9.88;4.53;;;;;;;;;;4927746;28;20259;-71
2023/10/04 00:32:41;;;;;;;9.52;4.22;;;;;;;;;;4924777;28;20065;-71
2023/10/04 00:35:19;;;;;;;10.48;4.10;;;;;;;;;;4928090;28;20347;-71
2023/10/04 00:37:51;;;;;;;9.73;4.25;;;;;;;;;;4923647;28;20172;-71
2023/10/04 00:40:21;;;;;;;9.43;4.47;;;;;;;;;;4922852;28;20496;-72
2023/10/04 00:42:51;;;;;;;9.50;4.55;;;;;;;;;;4924721;28;20031;-71
2023/10/04 00:45:19;;;;;;;8.77;4.10;;;;;;;;;;4923862;28;20039;-71
2023/10/04 00:47:53;;;;;;;9.80;4.63;;;;;;;;;;4921375;28;20023;-71
2023/10/04 00:50:26;;;;;;;9.88;4.63;;;;;;;;;;4924141;28;20113;-71
2023/10/04 00:53:12;;;;;;;9.73;4.30;;;;;;;;;;4924189;28;20030;-71
2023/10/04 00:55:49;;;;;;;9.93;4.30;;;;;;;;;;4923360;28;20049;-71
2023/10/04 00:58:19;;;;;;;10.63;4.90;;;;;;;;;;4923398;28;20027;-72
2023/10/04 01:00:47;;;;;;;8.45;3.70;;;;;;;;;;4917679;28;20035;-70
2023/10/04 01:03:21;;;;;;;11.88;4.38;;;;;;;;;;4925241;28;20645;-71
2023/10/04 01:05:47;;;;;;;9.15;4.15;;;;;;;;;;4916068;28;20367;-70
2023/10/04 01:08:17;;;;;;;9.93;4.10;;;;;;;;;;4933936;28;20230;-70
2023/10/04 01:10:46;;;;;;;12.13;4.35;;;;;;;;;;4920585;28;20035;-70
2023/10/04 01:13:15;;;;;;;9.38;4.32;;;;;;;;;;4924923;28;20030;-71
2023/10/04 01:15:41;;;;;;;9.73;4.65;;;;;;;;;;4922382;28;20039;-70
2023/10/04 01:18:11;;;;;;;8.85;4.47;;;;;;;;;;4923467;28;20324;-71
2023/10/04 01:20:39;;;;;;;10.02;5.07;;;;;;;;;;4927232;28;20042;-70
2023/10/04 01:23:06;;;;;;;9.07;4.82;;;;;;;;;;4921813;28;20112;-71
2023/10/04 01:25:35;;;;;;;9.88;4.50;;;;;;;;;;4924537;28;20035;-72
2023/10/04 01:28:07;;;;;;;13.07;5.07;;;;;;;;;;4918964;28;20101;-70
2023/10/04 01:30:33;;;;;;;10.10;4.60;;;;;;;;;;4925105;28;20031;-70
2023/10/04 01:33:03;;;;;;;9.55;4.65;;;;;;;;;;4923794;28;20058;-70
2023/10/04 01:35:29;;;;;;;10.23;4.50;;;;;;;;;;4927088;28;20026;-72
2023/10/04 01:37:55;;;;;;;11.48;4.68;;;;;;;;;;4923739;28;20034;-71
2023/10/04 01:40:25;;;;;;;10.20;4.28;;;;;;;;;;4930598;28;20143;-71
2023/10/04 01:42:52;;;;;;;9.77;4.65;;;;;;;;;;4927217;28;20597;-70
2023/10/04 01:45:21;;;;;;;10.65;4.70;;;;;;;;;;4928183;28;20027;-70
2023/10/04 01:47:47;;;;;;;9.10;4.45;;;;;;;;;;4921220;28;20027;-72
2023/10/04 01:50:14;;;;;;;10.50;4.45;;;;;;;;;;4928134;28;20031;-70
2023/10/04 01:52:40;;;;;;;9.02;4.10;;;;;;;;;;4929015;28;20835;-71
2023/10/04 01:55:09;;;;;;;10.00;4.45;;;;;;;;;;4922462;28;20998;-71
2023/10/04 01:57:36;;;;;;;11.98;4.40;;;;;;;;;;4927878;28;20305;-71
2023/10/04 02:00:02;;;;;;;8.57;4.22;;;;;;;;;;4923254;28;20532;-70
2023/10/04 02:02:28;;;;;;;9.25;4.18;;;;;;;;;;4925649;28;20125;-70
2023/10/04 02:04:54;;;;;;;9.82;4.15;;;;;;;;;;4922401;28;20789;-72
2023/10/04 02:07:24;;;;;;;9.77;3.88;;;;;;;;;;4926201;28;20895;-72
2023/10/04 02:09:51;;;;;;;9.15;3.90;;;;;;;;;;4925165;28;20029;-70
2023/10/04 02:12:18;;;;;;;8.82;4.03;;;;;;;;;;4932198;28;20872;-71
2023/10/04 02:14:46;;;;;;;9.32;4.00;;;;;;;;;;4940865;28;20539;-70
2023/10/04 02:17:16;;;;;;;8.40;3.65;;;;;;;;;;4926685;28;20042;-70
2023/10/04 02:19:42;;;;;;;8.98;3.97;;;;;;;;;;4929042;28;20027;-70
2023/10/04 02:22:10;;;;;;;9.40;4.22;;;;;;;;;;4932144;28;20070;-70
2023/10/04 02:24:40;;;;;;;8.85;3.65;;;;;;;;;;4927047;28;20066;-71
2023/10/04 02:27:11;;;;;;;8.88;3.72;;;;;;;;;;4922859;28;20039;-70
2023/10/04 02:29:44;;;;;;;9.90;3.78;;;;;;;;;;4924598;28;20367;-71
2023/10/04 02:32:10;;;;;;;9.25;3.47;;;;;;;;;;4927175;28;20855;-71
2023/10/04 02:34:36;;;;;;;8.13;3.47;;;;;;;;;;4926121;28;20043;-70
2023/10/04 02:37:06;;;;;;;9.55;3.85;;;;;;;;;;4925186;28;20133;-70
2023/10/04 02:39:37;;;;;;;8.82;3.72;;;;;;;;;;4927907;28;20318;-70
2023/10/04 02:42:12;;;;;;;15.43;3.85;;;;;;;;;;4924323;28;22204;-70
2023/10/04 02:44:38;;;;;;;8.93;4.10;;;;;;;;;;4925689;28;20514;-70
2023/10/04 02:47:08;;;;;;;10.07;3.78;;;;;;;;;;4925369;28;20214;-72
2023/10/04 02:49:37;;;;;;;8.85;3.40;;;;;;;;;;4928345;28;20039;-72
2023/10/04 02:52:13;;;;;;;8.82;3.72;;;;;;;;;;4923799;28;20836;-72
2023/10/04 02:54:41;;;;;;;;;;;;;;;;;;4921225;28;20578;-72
2023/10/04 02:57:07;;;;;;;10.35;4.07;;;;;;;;;;4924104;28;19922;-72
2023/10/04 02:59:34;;;;;;;8.75;3.75;;;;;;;;;;4921891;28;20035;-70
2023/10/04 03:02:03;;;;;;;7.90;3.40;;;;;;;;;;4935786;28;20093;-70
2023/10/04 03:04:29;;;;;;;10.50;3.60;;;;;;;;;;4926448;28;20046;-70
2023/10/04 03:06:56;;;;;;;9.27;3.83;;;;;;;;;;4942816;28;20047;-70
2023/10/04 03:09:24;;;;;;;7.07;3.22;;;;;;;;;;4924538;28;20047;-70
2023/10/04 03:11:50;;;;;;;8.27;3.55;;;;;;;;;;4924272;28;20067;-70
2023/10/04 03:14:16;;;;;;;8.40;3.55;;;;;;;;;;4928036;28;20918;-70
2023/10/04 03:16:43;;;;;;;9.05;3.58;;;;;;;;;;4937931;28;20031;-71
2023/10/04 03:19:10;;;;;;;8.73;3.55;;;;;;;;;;4940978;28;20054;-70
2023/10/04 03:21:44;;;;;;;8.57;3.60;;;;;;;;;;4927674;28;20428;-72
2023/10/04 03:24:10;;;;;;;9.85;4.00;;;;;;;;;;4927113;28;20027;-70
2023/10/04 03:26:37;;;;;;;10.05;3.75;;;;;;;;;;4925622;28;20035;-70
2023/10/04 03:29:05;;;;;;;8.73;3.55;;;;;;;;;;4922897;28;21095;-70
2023/10/04 03:31:31;;;;;;;8.75;3.70;;;;;;;;;;4927212;28;20644;-70
2023/10/04 03:33:57;;;;;;;9.02;3.53;;;;;;;;;;4928661;28;20039;-70
2023/10/04 03:36:25;;;;;;;8.30;3.60;;;;;;;;;;4927772;28;20035;-70
2023/10/04 03:38:51;;;;;;;8.50;3.90;;;;;;;;;;4921147;28;20086;-70
2023/10/04 03:41:19;;;;;;;8.35;3.60;;;;;;;;;;4919897;28;20097;-70
2023/10/04 03:43:46;;;;;;;8.18;3.50;;;;;;;;;;4920676;28;20023;-70
2023/10/04 03:46:19;;;;;;;8.88;3.42;;;;;;;;;;4921690;28;20674;-71
2023/10/04 03:48:49;;;;;;;8.50;3.25;;;;;;;;;;4935694;28;20118;-70
2023/10/04 03:51:19;;;;;;;10.02;3.40;;;;;;;;;;4937124;28;20406;-70
2023/10/04 03:53:46;;;;;;;9.30;3.55;;;;;;;;;;4919961;28;20339;-70
2023/10/04 03:56:17;;;;;;;8.95;3.58;;;;;;;;;;4922097;28;20130;-70
2023/10/04 03:58:43;;;;;;;7.57;3.33;;;;;;;;;;4918464;28;20016;-71
2023/10/04 04:01:10;;;;;;;8.35;3.78;;;;;;;;;;4933085;28;20035;-70
2023/10/04 04:03:36;;;;;;;9.10;3.67;;;;;;;;;;4936916;28;20482;-70
2023/10/04 04:06:04;;;;;;;7.90;3.17;;;;;;;;;;4931607;28;20496;-70
2023/10/04 04:08:31;;;;;;;9.88;4.10;;;;;;;;;;4918031;28;20315;-69
2023/10/04 04:10:57;;;;;;;8.77;3.33;;;;;;;;;;4912300;28;21450;-70
2023/10/04 04:13:23;;;;;;;10.75;4.38;;;;;;;;;;4919624;28;20097;-71
2023/10/04 04:15:51;;;;;;;8.52;3.85;;;;;;;;;;4929439;28;20122;-71
2023/10/04 04:18:21;;;;;;;8.50;3.72;;;;;;;;;;4921814;28;20421;-70
2023/10/04 04:20:48;;;;;;;8.25;3.33;;;;;;;;;;4936485;28;20038;-70
2023/10/04 04:23:17;;;;;;;8.73;3.80;;;;;;;;;;4926791;28;20048;-70
2023/10/04 04:25:45;;;;;;;8.25;3.30;;;;;;;;;;4927555;28;20461;-71
2023/10/04 04:28:13;;;;;;;8.73;3.47;;;;;;;;;;4928735;28;20208;-71
2023/10/04 04:30:39;;;;;;;11.23;4.05;;;;;;;;;;4939423;28;20529;-71
2023/10/04 04:33:07;;;;;;;9.77;4.18;;;;;;;;;;4920651;28;20054;-71
2023/10/04 04:38:16;;;;;;;9.18;3.92;;;;;;;;;;4920803;28;20031;-70
2023/10/04 04:41:25;;;;;;;12.10;3.95;;;;;;;;;;4918102;28;20106;-73
2023/10/04 04:43:37;;;;;;;10.07;4.00;;;;;;;;;;4920546;28;20280;-72
2023/10/04 04:46:09;;;;;;;8.68;3.63;;;;;;;;;;4918228;28;20226;-70
2023/10/04 04:48:36;;;;;;;8.55;3.67;;;;;;;;;;4936971;28;20034;-70
2023/10/04 04:51:06;;;;;;;9.05;4.03;;;;;;;;;;4920427;28;21533;-70
2023/10/04 04:53:33;;;;;;;9.70;4.15;;;;;;;;;;4926286;28;20034;-70
2023/10/04 04:56:00;;;;;;;10.02;3.97;;;;;;;;;;4921362;28;20059;-71
2023/10/04 04:58:28;;;;;;;10.18;4.00;;;;;;;;;;4924551;28;20271;-71
2023/10/04 05:00:56;;;;;;;11.23;4.68;;;;;;;;;;4936878;28;20090;-70
2023/10/04 05:03:24;;;;;;;9.25;3.95;;;;;;;;;;4923446;28;20075;-71
2023/10/04 05:05:50;;;;;;;11.50;4.47;;;;;;;;;;4919846;28;20027;-70
2023/10/04 05:08:17;;;;;;;10.48;4.00;;;;;;;;;;4926257;28;20043;-71
2023/10/04 05:10:45;;;;;;;9.57;4.05;;;;;;;;;;4922553;28;20125;-70
2023/10/04 05:13:14;;;;;;;8.48;3.55;;;;;;;;;;4921441;28;20035;-70
2023/10/04 05:15:42;;;;;;;9.00;3.63;;;;;;;;;;4925935;28;20487;-71
2023/10/04 05:18:14;;;;;;;14.90;4.20;;;;;;;;;;4924689;28;20626;-71
2023/10/04 05:20:41;;;;;;;14.20;3.88;;;;;;;;;;4926757;28;20035;-71
2023/10/04 05:23:09;;;;;;;9.32;4.00;;;;;;;;;;4937610;28;20555;-71
2023/10/04 05:25:36;;;;;;;9.52;3.47;;;;;;;;;;4929155;28;20741;-72
2023/10/04 05:28:04;;;;;;;10.07;4.13;;;;;;;;;;4927024;28;20031;-73
2023/10/04 05:30:31;;;;;;;12.15;4.65;;;;;;;;;;4926940;28;20422;-71
2023/10/04 05:32:57;;;;;;;11.55;4.13;;;;;;;;;;4939934;28;22010;-70
2023/10/04 05:35:24;;;;;;;10.35;4.00;;;;;;;;;;4928422;28;20565;-71
2023/10/04 05:37:50;;;;;;;10.45;3.85;;;;;;;;;;4924131;28;20054;-71
2023/10/04 05:40:25;;;;;;;11.43;4.28;;;;;;;;;;4927311;28;20074;-70
2023/10/04 05:42:51;;;;;;;10.23;4.32;;;;;;;;;;4922635;28;20110;-73
2023/10/04 05:45:18;;;;;;;13.30;4.97;;;;;;;;;;4925431;28;20027;-70
2023/10/04 05:47:44;;;;;;;10.00;4.78;;;;;;;;;;4929213;28;20031;-73
2023/10/04 05:50:13;;;;;;;11.27;4.72;;;;;;;;;;4929208;28;20326;-73
2023/10/04 05:52:39;;;;;;;10.98;4.10;;;;;;;;;;4932872;28;20311;-70
2023/10/04 05:55:09;;;;;;;10.30;5.07;;;;;;;;;;4928380;28;20034;-72
2023/10/04 05:57:35;;;;;;;12.70;4.13;;;;;;;;;;4926874;28;20046;-70
2023/10/04 06:00:14;;;;;;;10.27;4.20;;;;;;;;;;4926412;28;20034;-70
2023/10/04 06:02:46;;;;;;;9.90;3.97;;;;;;;;;;4926850;28;20058;-72
2023/10/04 06:05:14;;;;;;;11.35;3.72;;;;;;;;;;4930027;28;20601;-70
2023/10/04 06:07:40;;;;;;;12.25;3.58;;;;;;;;;;4946846;28;20667;-70
2023/10/04 06:10:06;;;;;;;8.90;3.55;;;;;;;;;;4940591;28;20233;-71
2023/10/04 06:12:32;;;;;;;10.75;3.97;;;;;;;;;;4926431;28;20415;-71
2023/10/04 06:14:59;;;;;;;12.48;4.38;;;;;;;;;;4926698;28;20065;-71
2023/10/04 06:17:26;;;;;;;11.27;4.65;;;;;;;;;;4930458;28;20023;-72
2023/10/04 06:19:54;;;;;;;12.25;4.07;;;;;;;;;;4922321;28;20038;-71
2023/10/04 06:22:20;;;;;;;14.20;4.65;;;;;;;;;;4931078;28;20027;-71
2023/10/04 06:24:46;;;;;;;12.77;4.10;;;;;;;;;;4923186;28;20369;-71
2023/10/04 06:27:13;;;;;;;11.55;4.50;;;;;;;;;;4928042;28;20069;-71
2023/10/04 06:29:39;;;;;;;9.93;4.18;;;;;;;;;;4928534;28;20031;-72
2023/10/04 06:32:05;;;;;;;11.52;4.45;;;;;;;;;;4943303;28;20375;-72
2023/10/04 06:34:32;;;;;;;14.18;4.50;;;;;;;;;;4927895;28;20971;-72
2023/10/04 06:36:58;;;;;;;14.80;4.55;;;;;;;;;;4921802;28;20031;-71
2023/10/04 06:39:24;;;;;;;12.77;4.10;;;;;;;;;;4926060;28;20057;-70
2023/10/04 06:41:50;;;;;;;12.50;4.07;;;;;;;;;;4928316;28;20335;-70
2023/10/04 06:44:16;;;;;;;15.23;4.32;;;;;;;;;;4929072;28;20457;-71
2023/10/04 06:46:44;;;;;;;12.57;4.30;;;;;;;;;;4920839;28;20610;-70
2023/10/04 06:49:10;;;;;;;15.80;4.03;;;;;;;;;;4925579;28;20034;-71
2023/10/04 06:51:37;;;;;;;14.30;4.30;;;;;;;;;;4929491;28;20054;-71
2023/10/04 06:54:05;;;;;;;12.43;3.80;;;;;;;;;;4926624;28;20127;-72
2023/10/04 06:56:31;;;;;;;11.68;4.20;;;;;;;;;;4942136;28;20129;-71
2023/10/04 06:58:57;;;;;;;16.25;3.97;;;;;;;;;;4925643;28;20117;-73
2023/10/04 07:01:23;;;;;;;13.52;4.32;;;;;;;;;;4946799;28;20603;-70
2023/10/04 07:03:49;;;;;;;12.80;3.47;;;;;;;;;;4930506;28;20038;-71
2023/10/04 07:06:16;;;;;;;12.02;3.72;;;;;;;;;;4930896;28;20269;-70
2023/10/04 07:08:43;;;;;;;13.40;3.67;;;;;;;;;;4931252;28;20067;-70
2023/10/04 07:11:10;;;;;;;14.10;3.38;;;;;;;;;;4927656;28;20035;-70
2023/10/04 07:13:36;;;;;;;16.95;4.05;;;;;;;;;;4928053;28;20455;-71
2023/10/04 07:16:02;;;;;;;14.05;3.80;;;;;;;;;;4942681;28;20351;-70
2023/10/04 07:18:29;;;;;;;11.65;3.92;;;;;;;;;;4929783;28;20064;-71
2023/10/04 07:20:55;;;;;;;11.30;3.60;;;;;;;;;;4923424;28;20030;-71
2023/10/04 07:23:21;;;;;;;17.73;4.28;;;;;;;;;;4926400;28;20093;-72
2023/10/04 07:25:49;;;;;;;13.20;4.15;;;;;;;;;;4922789;28;20035;-71
2023/10/04 07:28:16;;;;;;;20.20;4.57;;;;;;;;;;4930407;28;20277;-71
2023/10/04 07:30:43;;;;;;;22.40;4.28;;;;;;;;;;4929273;28;20699;-70
2023/10/04 07:33:10;;;;;;;15.10;3.83;;;;;;;;;;4946056;28;20034;-70
2023/10/04 07:35:37;;;;;;;12.73;3.67;;;;;;;;;;4932203;28;20200;-71
2023/10/04 07:38:06;;;;;;;20.13;4.25;;;;;;;;;;4921442;28;20023;-71
2023/10/04 07:40:32;;;;;;;11.93;3.50;;;;;;;;;;4930014;28;20114;-72
2023/10/04 07:42:59;;;;;;;13.13;3.65;;;;;;;;;;4923863;28;20624;-71
2023/10/04 07:45:28;;;;;;;13.57;3.63;;;;;;;;;;4928940;28;20034;-71
2023/10/04 07:47:54;;;;;;;18.05;3.80;;;;;;;;;;4944095;28;20284;-71
2023/10/04 07:50:24;;;;;;;14.82;4.05;;;;;;;;;;4932253;28;20588;-71
2023/10/04 07:52:54;;;;;;;13.93;3.78;;;;;;;;;;4923552;28;20030;-72
2023/10/04 07:55:22;;;;;;;20.88;4.40;;;;;;;;;;4930604;28;20034;-71
2023/10/04 07:57:53;;;;;;;14.18;3.60;;;;;;;;;;4922247;28;20055;-71
2023/10/04 08:00:20;;;;;;;17.30;3.97;;;;;;;;;;4941833;28;20502;-70
2023/10/04 08:02:49;;;;;;;16.38;4.05;;;;;;;;;;4938596;28;20310;-71
2023/10/04 08:05:26;;;;;;;15.35;4.10;;;;;;;;;;4943038;28;20039;-71
2023/10/04 08:07:56;;;;;;;20.75;4.07;;;;;;;;;;4928252;28;20078;-72
2023/10/04 08:10:25;;;;;;;12.85;4.05;;;;;;;;;;4930720;28;20151;-71
2023/10/04 08:12:53;;;;;;;14.73;4.00;;;;;;;;;;4924067;28;20039;-71
2023/10/04 08:15:19;;;;;;;10.82;3.65;;;;;;;;;;4931690;28;20023;-71
2023/10/04 08:17:48;;;;;;;11.80;3.42;;;;;;;;;;4925977;28;20426;-71
2023/10/04 08:20:14;;;;;;;14.25;4.47;;;;;;;;;;4930305;28;20031;-70
2023/10/04 08:22:44;;;;;;;12.95;3.58;;;;;;;;;;4929802;28;20031;-71
2023/10/04 08:25:12;;;;;;;13.88;3.60;;;;;;;;;;4931232;28;20031;-71
2023/10/04 08:27:39;;;;;;;13.93;3.17;;;;;;;;;;4927323;28;20121;-71
2023/10/04 08:30:11;;;;;;;15.07;3.25;;;;;;;;;;4923705;28;20028;-71
2023/10/04 08:32:37;;;;;;;10.82;3.10;;;;;;;;;;4928268;28;20340;-71
2023/10/04 08:35:04;;;;;;;13.77;3.97;;;;;;;;;;4921133;28;21931;-70
2023/10/04 08:37:30;;;;;;;14.40;3.05;;;;;;;;;;4921834;28;20142;-72
2023/10/04 08:39:56;;;;;;;10.73;3.08;;;;;;;;;;4926362;28;20706;-71
2023/10/04 08:42:26;;;;;;;9.20;2.55;;;;;;;;;;4925196;28;20483;-71
2023/10/04 08:44:52;;;;;;;11.65;2.92;;;;;;;;;;4925133;28;20406;-71
2023/10/04 08:47:19;;;;;;;10.25;3.00;;;;;;;;;;4945936;28;20039;-71
2023/10/04 08:49:53;;;;;;;12.23;2.95;;;;;;;;;;4926467;28;20178;-71
2023/10/04 08:52:36;;;;;;;14.75;3.40;;;;;;;;;;4942255;28;20050;-71
2023/10/04 08:55:13;;;;;;;11.60;3.50;;;;;;;;;;4938722;28;20311;-71
2023/10/04 08:57:40;;;;;;;14.38;3.30;;;;;;;;;;4925796;28;20033;-71
2023/10/04 09:00:18;;;;;;;8.80;2.53;;;;;;;;;;4921560;28;20137;-72
2023/10/04 09:02:45;;;;;;;14.73;2.88;;;;;;;;;;4928253;28;20328;-71
2023/10/04 09:05:23;;;;;;;16.10;3.38;;;;;;;;;;4924970;28;20027;-71
2023/10/04 09:07:52;;;;;;;10.52;2.67;;;;;;;;;;4925710;28;20067;-71
2023/10/04 09:10:19;;;;;;;9.30;2.45;;;;;;;;;;4940595;28;20079;-71
2023/10/04 09:12:48;;;;;;;10.80;2.33;;;;;;;;;;4923368;28;20050;-70
2023/10/04 09:15:15;;;;;;;10.98;2.55;;;;;;;;;;4930734;28;20552;-71
2023/10/04 09:17:51;;;;;;;12.32;2.47;;;;;;;;;;4926992;28;20512;-73
2023/10/04 09:20:19;;;;;;;11.60;2.58;;;;;;;;;;4928842;28;20027;-71
2023/10/04 09:22:46;;;;;;;10.73;2.28;;;;;;;;;;4920061;28;20104;-71
2023/10/04 09:25:12;;;;;;;9.13;2.05;;;;;;;;;;4931959;28;20294;-71
2023/10/04 09:27:40;;;;;;;9.02;2.22;;;;;;;;;;4929636;28;20039;-71
2023/10/04 09:30:23;;;;;;;10.93;2.53;;;;;;;;;;4923267;28;20131;-71
2023/10/04 09:32:51;;;;;;;10.55;2.80;;;;;;;;;;4927860;28;20496;-71
2023/10/04 09:35:18;;;;;;;11.45;2.63;;;;;;;;;;4927104;28;20035;-71
2023/10/04 09:37:45;;;;;;;8.25;2.28;;;;;;;;;;4927208;28;20240;-71
2023/10/04 09:40:16;;;;;;;13.18;2.65;;;;;;;;;;4930323;28;20042;-72
2023/10/04 09:42:53;;;;;;;10.88;2.72;;;;;;;;;;4930241;28;20138;-72
2023/10/04 09:45:26;;;;;;;11.07;2.78;;;;;;;;;;4926898;28;20027;-72
2023/10/04 09:47:56;;;;;;;14.85;2.70;;;;;;;;;;4924782;28;20142;-73
2023/10/04 09:50:26;;;;;;;14.82;2.63;;;;;;;;;;4943079;28;20252;-71
2023/10/04 09:52:53;;;;;;;10.05;3.03;;;;;;;;;;4924531;28;20431;-72
2023/10/04 09:55:25;;;;;;;11.10;2.90;;;;;;;;;;4930334;28;20051;-72
2023/10/04 09:57:53;;;;;;;13.13;2.42;;;;;;;;;;4925491;28;20020;-71
2023/10/04 10:00:20;;;;;;;13.93;2.50;;;;;;;;;;4927707;28;20554;-73
2023/10/04 10:02:48;;;;;;;12.15;2.63;;;;;;;;;;4930750;28;20026;-71
2023/10/04 10:05:19;;;;;;;9.00;2.45;;;;;;;;;;4950525;28;20468;-72
2023/10/04 10:07:48;;;;;;;8.45;2.63;;;;;;;;;;4929750;28;20574;-72
2023/10/04 10:10:16;;;;;;;11.93;3.00;;;;;;;;;;4950451;28;20034;-71
2023/10/04 10:12:48;;;;;;;9.40;2.70;;;;;;;;;;4933317;28;20027;-72
2023/10/04 10:15:14;;;;;;;9.05;2.50;;;;;;;;;;4946288;28;20039;-72
2023/10/04 10:17:42;;;;;;;10.27;2.83;;;;;;;;;;4932523;28;20110;-72
2023/10/04 10:20:09;;;;;;;17.42;3.30;;;;;;;;;;4929203;28;20122;-71
2023/10/04 10:22:36;;;;;;;12.27;2.70;;;;;;;;;;4928763;28;20114;-71
2023/10/04 10:25:05;;;;;;;10.73;2.45;;;;;;;;;;4943742;28;20037;-72
2023/10/04 10:27:31;;;;;;;9.13;2.78;;;;;;;;;;4933401;28;20030;-72
2023/10/04 10:30:00;;;;;;;9.27;3.10;;;;;;;;;;4930949;28;20031;-73
2023/10/04 10:32:26;;;;;;;11.68;3.08;;;;;;;;;;4930827;28;20043;-72
2023/10/04 10:34:58;;;;;;;10.15;2.90;;;;;;;;;;4928229;28;20150;-71
2023/10/04 10:37:25;;;;;;;10.38;2.88;;;;;;;;;;4933321;28;20031;-71
2023/10/04 10:40:04;;;;;;;10.63;2.53;;;;;;;;;;4925299;28;21236;-73
2023/10/04 10:42:50;;;;;;;10.68;2.97;;;;;;;;;;4930909;28;20034;-71
2023/10/04 10:45:29;;;;;;;10.82;3.53;;;;;;;;;;4945140;28;20030;-73
2023/10/04 10:47:58;;;;;;;11.55;3.05;;;;;;;;;;4929229;28;20069;-71
2023/10/04 10:50:34;;;;;;;9.65;2.92;;;;;;;;;;4926546;28;20031;-71
2023/10/04 10:53:08;;;;;;;11.27;2.78;;;;;;;;;;4922226;28;20063;-71
2023/10/04 10:55:35;;;;;;;;;;;;;;;;;;4925486;28;20046;-74
2023/10/04 10:58:01;;;;;;;14.88;2.72;;;;;;;;;;4925157;28;20009;-73
2023/10/04 11:00:34;;;;;;;10.35;2.67;;;;;;;;;;4943303;28;20264;-73
2023/10/04 11:03:01;;;;;;;8.30;2.35;;;;;;;;;;4923339;28;20355;-72
2023/10/04 11:05:27;;;;;;;9.77;2.65;;;;;;;;;;4927919;28;20470;-73
2023/10/04 11:07:54;;;;;;;7.97;2.60;;;;;;;;;;4923402;28;20055;-72
2023/10/04 11:10:23;;;;;;;10.75;2.58;;;;;;;;;;4925836;28;20046;-73
2023/10/04 11:12:59;;;;;;;10.00;2.65;;;;;;;;;;4923978;28;20023;-72
2023/10/04 11:15:27;;;;;;;8.80;2.30;;;;;;;;;;4927778;28;20093;-72
2023/10/04 11:17:54;;;;;;;8.55;2.53;;;;;;;;;;4926055;28;20093;-72
2023/10/04 11:20:21;;;;;;;9.90;2.25;;;;;;;;;;4930663;28;20042;-72
2023/10/04 11:22:51;;;;;;;8.98;2.80;;;;;;;;;;4923202;28;20433;-72
2023/10/04 11:25:18;;;;;;;11.70;2.55;;;;;;;;;;4927797;28;20027;-72
2023/10/04 11:27:48;;;;;;;9.55;2.42;;;;;;;;;;4931120;28;20041;-72
2023/10/04 11:30:16;;;;;;;9.82;2.45;;;;;;;;;;4931973;28;20149;-73
2023/10/04 11:32:45;;;;;;;9.25;2.25;;;;;;;;;;4926963;28;20026;-72
2023/10/04 11:35:12;;;;;;;9.40;2.50;;;;;;;;;;4943114;28;20089;-72
2023/10/04 11:37:44;;;;;;;8.93;2.40;;;;;;;;;;4931606;28;20417;-72
2023/10/04 11:40:12;;;;;;;7.82;2.40;;;;;;;;;;4929518;28;20817;-73
2023/10/04 11:42:39;;;;;;;9.30;2.45;;;;;;;;;;4943370;28;20038;-73
2023/10/04 11:45:18;;;;;;;9.23;2.55;;;;;;;;;;4921618;28;20032;-73
2023/10/04 11:47:45;;;;;;;8.50;2.40;;;;;;;;;;4924793;28;20096;-73
2023/10/04 11:50:13;;;;;;;9.25;2.30;;;;;;;;;;4926521;28;20366;-73
2023/10/04 11:52:40;;;;;;;7.35;2.35;;;;;;;;;;4931542;28;20031;-73
2023/10/04 11:55:24;;;;;;;8.32;2.33;;;;;;;;;;4925489;28;20035;-73
2023/10/04 11:57:51;;;;;;;10.65;2.60;;;;;;;;;;4940360;28;20478;-73
2023/10/04 12:00:18;;;;;;;8.25;2.55;;;;;;;;;;4928776;28;20372;-72
2023/10/04 12:02:44;;;;;;;9.68;2.45;;;;;;;;;;4941165;28;20031;-73
2023/10/04 12:05:11;;;;;;;9.50;2.50;;;;;;;;;;4942860;28;20689;-72
2023/10/04 12:07:38;;;;;;;7.72;2.35;;;;;;;;;;4927211;28;20062;-73
2023/10/04 12:10:06;;;;;;;8.00;2.50;;;;;;;;;;4922194;28;24271;-73
2023/10/04 12:12:32;;;;;;;7.13;2.53;;;;;;;;;;4922043;28;20066;-72
2023/10/04 12:14:59;;;;;;;10.85;2.60;;;;;;;;;;4926178;28;20031;-73
2023/10/04 12:17:25;;;;;;;9.70;2.95;;;;;;;;;;4921356;28;20036;-73
2023/10/04 12:19:51;;;;;;;11.13;2.72;;;;;;;;;;4935525;28;20023;-72
2023/10/04 12:22:19;;;;;;;11.75;2.83;;;;;;;;;;4922770;28;20357;-73
2023/10/04 12:24:46;;;;;;;10.88;2.92;;;;;;;;;;4917963;28;20049;-72
2023/10/04 12:27:15;;;;;;;9.00;2.60;;;;;;;;;;4918994;28;20039;-73
2023/10/04 12:29:41;;;;;;;9.25;2.42;;;;;;;;;;4921016;28;20061;-75
2023/10/04 12:32:07;;;;;;;9.65;2.55;;;;;;;;;;4933610;28;21242;-74
2023/10/04 12:34:37;;;;;;;8.73;2.55;;;;;;;;;;4922721;28;20031;-75
2023/10/04 12:37:03;;;;;;;8.45;2.40;;;;;;;;;;4917142;28;20035;-74
2023/10/04 12:39:31;;;;;;;10.52;2.60;;;;;;;;;;4938274;28;20030;-74
2023/10/04 12:41:59;;;;;;;8.45;2.30;;;;;;;;;;4915796;28;20045;-74
2023/10/04 12:44:25;;;;;;;14.05;2.90;;;;;;;;;;4919448;28;20070;-73
2023/10/04 12:46:52;;;;;;;9.93;2.60;;;;;;;;;;4915148;28;20038;-75
2023/10/04 12:49:19;;;;;;;7.78;2.35;;;;;;;;;;4920817;28;20390;-74
2023/10/04 12:51:48;;;;;;;8.98;2.50;;;;;;;;;;4915831;28;20042;-74
2023/10/04 12:54:16;;;;;;;7.25;2.38;;;;;;;;;;4920096;28;20027;-74
2023/10/04 12:56:42;;;;;;;9.98;2.25;;;;;;;;;;4922294;28;20081;-74
2023/10/04 12:59:10;;;;;;;8.43;2.38;;;;;;;;;;4934012;28;20031;-74
2023/10/04 13:01:36;;;;;;;19.02;3.00;;;;;;;;;;4936914;28;20375;-74
2023/10/04 13:04:03;;;;;;;12.48;3.00;;;;;;;;;;4934408;28;20078;-74
2023/10/04 13:06:30;;;;;;;7.25;2.30;;;;;;;;;;4918672;28;20038;-74
2023/10/04 13:08:57;;;;;;;8.63;2.33;;;;;;;;;;4920539;28;20077;-74
2023/10/04 13:11:24;;;;;;;10.52;2.40;;;;;;;;;;4934325;28;20027;-75
2023/10/04 13:13:51;;;;;;;9.10;2.25;;;;;;;;;;4933132;28;20967;-75
2023/10/04 13:16:17;;;;;;;8.18;2.45;;;;;;;;;;4920378;28;20093;-74
2023/10/04 13:18:43;;;;;;;10.73;2.55;;;;;;;;;;4919707;28;20384;-76
2023/10/04 13:21:12;;;;;;;8.55;2.45;;;;;;;;;;4919704;28;20050;-75
2023/10/04 13:23:39;;;;;;;7.90;2.42;;;;;;;;;;4921376;28;20039;-75
2023/10/04 13:26:05;;;;;;;7.82;2.30;;;;;;;;;;4917621;28;20030;-75
2023/10/04 13:28:34;;;;;;;8.70;2.25;;;;;;;;;;4933046;28;20543;-75
2023/10/04 13:31:00;;;;;;;12.45;3.25;;;;;;;;;;4919288;28;20038;-74
2023/10/04 13:33:28;;;;;;;8.25;2.25;;;;;;;;;;4934675;28;20047;-74
2023/10/04 13:35:54;;;;;;;8.55;2.45;;;;;;;;;;4917705;28;20108;-75
2023/10/04 13:38:21;;;;;;;10.98;2.50;;;;;;;;;;4941855;28;20316;-75
2023/10/04 13:40:49;;;;;;;7.47;2.50;;;;;;;;;;4925465;28;20482;-75
2023/10/04 13:43:16;;;;;;;7.90;2.28;;;;;;;;;;4945526;28;20749;-74
2023/10/04 13:45:43;;;;;;;8.35;2.38;;;;;;;;;;4927167;28;20027;-75
2023/10/04 13:48:10;;;;;;;9.73;3.17;;;;;;;;;;4910253;28;20562;-74
2023/10/04 13:50:38;;;;;;;11.48;3.10;;;;;;;;;;4927585;28;20046;-75
2023/10/04 13:53:16;;;;;;;9.32;2.90;;;;;;;;;;4936399;28;21614;-75
2023/10/04 13:55:42;;;;;;;12.63;3.28;;;;;;;;;;4941145;28;20909;-74
2023/10/04 13:58:09;;;;;;;8.70;2.47;;;;;;;;;;4938142;28;20193;-74
2023/10/04 14:00:41;;;;;;;9.45;2.78;;;;;;;;;;4939196;28;20030;-74
2023/10/04 14:03:09;;;;;;;9.65;2.97;;;;;;;;;;4921352;28;20019;-73
2023/10/04 14:05:35;;;;;;;9.70;2.78;;;;;;;;;;4941135;28;20035;-73
2023/10/04 14:08:01;;;;;;;9.20;2.53;;;;;;;;;;4937667;28;20141;-74
2023/10/04 14:10:28;;;;;;;9.25;2.70;;;;;;;;;;4926324;28;20620;-74
2023/10/04 14:12:58;;;;;;;9.75;2.63;;;;;;;;;;4939940;28;20437;-75
2023/10/04 14:15:28;;;;;;;10.55;2.83;;;;;;;;;;4939311;28;20330;-74
2023/10/04 14:17:55;;;;;;;7.95;2.38;;;;;;;;;;4932324;28;20027;-74
2023/10/04 14:20:21;;;;;;;8.32;2.58;;;;;;;;;;4923067;28;20031;-73
2023/10/04 14:22:51;;;;;;;8.30;2.63;;;;;;;;;;4933384;28;20488;-74
2023/10/04 14:25:18;;;;;;;9.23;2.67;;;;;;;;;;4922968;28;20442;-75
2023/10/04 14:27:44;;;;;;;7.43;2.42;;;;;;;;;;4922690;28;20219;-75
2023/10/04 14:30:16;;;;;;;9.80;3.45;;;;;;;;;;4936942;28;20419;-75
2023/10/04 14:32:42;;;;;;;8.15;2.40;;;;;;;;;;4922733;28;20047;-75
2023/10/04 14:35:10;;;;;;;10.65;2.53;;;;;;;;;;4920393;28;20434;-74
2023/10/04 14:37:39;;;;;;;12.02;3.20;;;;;;;;;;4921641;28;20042;-75
2023/10/04 14:40:22;;;;;;;9.00;2.83;;;;;;;;;;4919444;28;20036;-74
2023/10/04 14:42:49;;;;;;;10.25;2.65;;;;;;;;;;4921338;28;20045;-75
2023/10/04 14:45:16;;;;;;;9.65;2.72;;;;;;;;;;4920469;28;20043;-75
2023/10/04 14:47:42;;;;;;;8.68;2.75;;;;;;;;;;4922813;28;20039;-73